EYPA

Palanga International Airport

Palanga, Lithuania
METAR EYPA 251450Z 34007KT 290V040 9999 BKN042 11/03 Q1029
Observed Flight Rules
Sep-25 @ 14:50 UTC (15 minutes ago) Visual Flight Rules
Wind Visibility Clouds
340° at 7 knots 10,000+ meters
  • Broken at 4,200' AGL
Temperatures Readings
Current 11°C / 52°F
Dewpoint 3°C / 37°F
Humidity 58%
Altimeter 30.38" Hg
Pressure 1029 hPa
Elevation 10
METAR EYPA 251450Z 34007KT 290V040 9999 BKN042 11/03 Q1029
Observed Flight Rules
Sep-25 @ 14:50 UTC
(15 minutes ago)
VFR
Wind Visibility
340° at 7 knots 10,000+ meters
Clouds
  • Broken at 4,200' AGL
Temperature Dewpoint
11°C / 52°F 3°C / 37°F
Humidity Altimeter Pressure
58% 30.38" Hg 1029 hPa